createdAt,value
2022-10-07T00:01:28.659Z,100.00
2022-10-07T00:03:55.163Z,100.00
2022-10-07T00:06:21.832Z,100.00
2022-10-07T00:08:49.101Z,100.00
2022-10-07T00:11:16.793Z,100.00
2022-10-07T00:13:43.592Z,100.00
2022-10-07T00:16:14.053Z,100.00
2022-10-07T00:18:40.520Z,100.00
2022-10-07T00:21:07.570Z,100.00
2022-10-07T00:23:34.118Z,100.00
2022-10-07T00:26:01.689Z,100.00
2022-10-07T00:28:28.248Z,100.00
2022-10-07T00:31:01.498Z,100.00
2022-10-07T00:33:31.499Z,100.00
2022-10-07T00:35:57.876Z,100.00
2022-10-07T00:38:24.195Z,100.00
2022-10-07T00:40:50.510Z,100.00
2022-10-07T00:43:20.746Z,100.00
2022-10-07T00:45:47.144Z,100.00
2022-10-07T00:48:15.989Z,100.00
2022-10-07T00:50:42.301Z,100.00
2022-10-07T00:53:09.837Z,100.00
2022-10-07T00:55:36.142Z,100.00
2022-10-07T00:58:02.917Z,100.00
2022-10-07T01:00:30.141Z,100.00
2022-10-07T01:02:56.461Z,100.00
2022-10-07T01:05:22.844Z,100.00
2022-10-07T01:07:49.205Z,100.00
2022-10-07T01:10:18.663Z,100.00
2022-10-07T01:12:44.953Z,100.00
2022-10-07T01:15:32.243Z,100.00
2022-10-07T01:18:17.777Z,100.00
2022-10-07T01:20:47.210Z,100.00
2022-10-07T01:23:19.843Z,100.00
2022-10-07T01:25:52.130Z,100.00
2022-10-07T01:28:22.774Z,100.00
2022-10-07T01:30:50.107Z,100.00
2022-10-07T01:33:18.931Z,100.00
2022-10-07T01:35:45.567Z,100.00
2022-10-07T01:38:11.970Z,100.00
2022-10-07T01:40:42.931Z,100.00
2022-10-07T01:43:09.269Z,100.00
2022-10-07T01:45:36.446Z,100.00
2022-10-07T01:48:04.023Z,100.00
2022-10-07T01:50:30.409Z,100.00
2022-10-07T01:53:04.632Z,100.00
2022-10-07T01:55:50.453Z,100.00
2022-10-07T01:58:31.958Z,100.00
2022-10-07T02:01:13.711Z,100.00
2022-10-07T02:03:43.244Z,100.00
2022-10-07T02:06:45.379Z,100.00
2022-10-07T02:09:15.934Z,100.00
2022-10-07T02:11:42.277Z,100.00
2022-10-07T02:14:11.898Z,100.00
2022-10-07T02:16:42.454Z,100.00
2022-10-07T02:19:13.821Z,100.00
2022-10-07T02:21:40.199Z,100.00
2022-10-07T02:24:06.994Z,100.00
2022-10-07T02:26:33.824Z,100.00
2022-10-07T02:29:00.142Z,100.00
2022-10-07T02:31:27.765Z,100.00
2022-10-07T02:33:54.193Z,100.00
2022-10-07T02:36:22.346Z,100.00
2022-10-07T02:38:48.685Z,100.00
2022-10-07T02:41:31.215Z,100.00
2022-10-07T02:43:58.375Z,100.00
2022-10-07T02:46:26.191Z,100.00
2022-10-07T02:49:11.556Z,100.00
2022-10-07T02:51:46.398Z,100.00
2022-10-07T02:54:12.832Z,100.00
2022-10-07T02:56:39.195Z,100.00
2022-10-07T02:59:05.901Z,100.00
2022-10-07T03:01:34.022Z,100.00
2022-10-07T03:04:01.273Z,100.00
2022-10-07T03:06:30.861Z,100.00
2022-10-07T03:08:57.954Z,100.00
2022-10-07T03:11:24.378Z,100.00
2022-10-07T03:13:50.690Z,100.00
2022-10-07T03:16:17.063Z,100.00
2022-10-07T03:18:43.386Z,100.00
2022-10-07T03:21:10.066Z,100.00
2022-10-07T03:23:36.415Z,100.00
2022-10-07T03:26:02.765Z,100.00
2022-10-07T03:28:29.589Z,100.00
2022-10-07T03:31:03.309Z,100.00
2022-10-07T03:33:29.739Z,100.00
2022-10-07T03:35:56.321Z,100.00
2022-10-07T03:38:22.751Z,100.00
2022-10-07T03:40:49.821Z,100.00
2022-10-07T03:43:16.149Z,100.00
2022-10-07T03:45:43.565Z,100.00
2022-10-07T03:48:09.895Z,100.00
2022-10-07T03:50:37.479Z,100.00
2022-10-07T03:53:04.983Z,100.00
2022-10-07T03:55:31.311Z,100.00
2022-10-07T03:57:59.639Z,100.00
2022-10-07T04:00:26.451Z,100.00
2022-10-07T04:02:52.910Z,100.00
2022-10-07T04:05:19.879Z,100.00
2022-10-07T04:07:47.108Z,100.00
2022-10-07T04:10:14.423Z,100.00
2022-10-07T04:12:41.084Z,100.00
2022-10-07T04:15:07.840Z,100.00
2022-10-07T04:17:34.345Z,100.00
2022-10-07T04:20:00.721Z,100.00
2022-10-07T04:22:27.055Z,100.00
2022-10-07T04:25:12.086Z,100.00
2022-10-07T04:27:51.628Z,100.00
2022-10-07T04:30:18.482Z,100.00
2022-10-07T04:32:44.817Z,100.00
2022-10-07T04:35:11.135Z,100.00
2022-10-07T04:37:37.530Z,100.00
2022-10-07T04:40:04.000Z,100.00
2022-10-07T04:42:49.166Z,100.00
2022-10-07T04:45:15.596Z,100.00
2022-10-07T04:47:42.194Z,100.00
2022-10-07T04:50:08.947Z,100.00
2022-10-07T04:52:35.306Z,100.00
2022-10-07T04:55:01.654Z,100.00
2022-10-07T04:57:27.991Z,100.00
2022-10-07T04:59:54.579Z,100.00
2022-10-07T05:02:21.042Z,100.00
2022-10-07T05:04:47.375Z,100.00
2022-10-07T05:07:13.765Z,100.00
2022-10-07T05:09:40.219Z,100.00
2022-10-07T05:12:06.614Z,100.00
2022-10-07T05:14:33.690Z,100.00
2022-10-07T05:17:00.092Z,100.00
2022-10-07T05:19:26.413Z,100.00
2022-10-07T05:21:52.756Z,100.00
2022-10-07T05:24:19.115Z,100.00
2022-10-07T05:26:45.451Z,100.00
2022-10-07T05:29:11.798Z,100.00
2022-10-07T05:31:38.247Z,100.00
2022-10-07T05:34:04.635Z,100.00
2022-10-07T05:36:30.955Z,100.00
2022-10-07T05:38:58.072Z,100.00
2022-10-07T05:41:24.554Z,100.00
2022-10-07T05:43:50.908Z,100.00
2022-10-07T05:46:18.306Z,100.00
2022-10-07T05:48:47.959Z,100.00
2022-10-07T05:51:14.774Z,100.00
2022-10-07T05:53:41.542Z,100.00
2022-10-07T05:56:08.294Z,100.00
2022-10-07T05:58:36.122Z,100.00
2022-10-07T06:01:06.841Z,100.00
2022-10-07T06:03:35.206Z,100.00
2022-10-07T06:06:01.515Z,100.00
2022-10-07T06:08:27.916Z,100.00
2022-10-07T06:11:12.610Z,100.00
2022-10-07T06:13:38.942Z,100.00
2022-10-07T06:16:06.368Z,100.00
2022-10-07T06:18:32.783Z,100.00
2022-10-07T06:20:59.835Z,100.00
2022-10-07T06:23:26.344Z,100.00
2022-10-07T06:25:55.110Z,100.00
2022-10-07T06:28:21.585Z,100.00
2022-10-07T06:30:48.720Z,100.00
2022-10-07T06:33:15.129Z,100.00
2022-10-07T06:35:41.451Z,100.00
2022-10-07T06:38:07.834Z,100.00
2022-10-07T06:40:34.139Z,100.00
2022-10-07T06:43:00.583Z,100.00
2022-10-07T06:45:28.122Z,100.00
2022-10-07T06:47:54.468Z,100.00
2022-10-07T06:50:21.168Z,100.00
2022-10-07T06:52:47.535Z,100.00
2022-10-07T06:55:13.886Z,100.00
2022-10-07T06:57:56.097Z,100.00
2022-10-07T07:00:22.588Z,100.00
2022-10-07T07:02:49.088Z,100.00
2022-10-07T07:05:15.671Z,100.00
2022-10-07T07:07:42.163Z,99.72
2022-10-07T07:10:08.842Z,100.00
2022-10-07T07:12:35.189Z,100.00
2022-10-07T07:15:01.573Z,100.00
2022-10-07T07:17:28.070Z,99.21
2022-10-07T07:19:54.479Z,98.92
2022-10-07T07:22:20.808Z,98.15
2022-10-07T07:24:47.166Z,97.64
2022-10-07T07:27:15.084Z,95.58
2022-10-07T07:29:41.688Z,95.49
2022-10-07T07:32:08.200Z,95.97
2022-10-07T07:34:36.293Z,96.08
2022-10-07T07:37:02.618Z,93.84
2022-10-07T07:39:29.016Z,94.55
2022-10-07T07:41:55.744Z,94.77
2022-10-07T07:44:23.438Z,93.63
2022-10-07T07:46:52.007Z,92.96
2022-10-07T07:49:18.499Z,92.33
2022-10-07T07:51:45.216Z,91.49
2022-10-07T07:54:11.925Z,91.02
2022-10-07T07:56:38.266Z,90.50
2022-10-07T07:59:05.107Z,90.11
2022-10-07T08:01:31.973Z,89.83
2022-10-07T08:03:58.571Z,89.76
2022-10-07T08:06:27.766Z,88.77
2022-10-07T08:08:57.198Z,88.58
2022-10-07T08:11:23.588Z,88.11
2022-10-07T08:13:50.010Z,88.67
2022-10-07T08:16:20.322Z,86.69
2022-10-07T08:18:47.367Z,88.43
2022-10-07T08:21:14.023Z,88.81
2022-10-07T08:23:40.984Z,88.66
2022-10-07T08:26:07.766Z,89.69
2022-10-07T08:28:34.274Z,89.48
2022-10-07T08:31:03.866Z,87.29
2022-10-07T08:33:31.826Z,89.96
2022-10-07T08:35:58.642Z,89.34
2022-10-07T08:38:25.167Z,87.09
2022-10-07T08:40:52.047Z,87.02
2022-10-07T08:43:18.626Z,85.64
2022-10-07T08:45:45.399Z,87.11
2022-10-07T08:48:17.856Z,86.27
2022-10-07T08:50:47.050Z,85.66
2022-10-07T08:53:15.719Z,84.36
2022-10-07T08:55:46.534Z,87.50
2022-10-07T08:58:15.955Z,86.68
2022-10-07T09:00:43.226Z,85.46
2022-10-07T09:03:28.058Z,86.46
2022-10-07T09:05:55.591Z,84.98
2022-10-07T09:08:29.918Z,84.48
2022-10-07T09:10:56.774Z,83.98
2022-10-07T09:13:24.395Z,84.25
2022-10-07T09:15:50.738Z,84.74
2022-10-07T09:18:27.542Z,83.11
2022-10-07T09:20:55.022Z,83.33
2022-10-07T09:23:23.049Z,84.38
2022-10-07T09:25:49.450Z,81.82
2022-10-07T09:28:16.479Z,81.98
2022-10-07T09:30:42.990Z,83.33
2022-10-07T09:33:13.322Z,82.23
2022-10-07T09:35:39.654Z,82.01
2022-10-07T09:38:09.460Z,81.30
2022-10-07T09:40:35.889Z,80.60
2022-10-07T09:43:02.867Z,81.39
2022-10-07T09:45:32.706Z,79.42
2022-10-07T09:48:09.175Z,79.18
2022-10-07T09:50:46.674Z,82.88
2022-10-07T09:53:33.492Z,79.06
2022-10-07T09:55:59.853Z,80.91
2022-10-07T09:58:27.166Z,82.46
2022-10-07T10:00:54.089Z,80.03
2022-10-07T10:03:20.704Z,78.12
2022-10-07T10:06:00.298Z,78.89
2022-10-07T10:08:28.164Z,77.78
2022-10-07T10:10:55.323Z,79.05
2022-10-07T10:13:25.531Z,78.90
2022-10-07T10:15:51.902Z,77.50
2022-10-07T10:18:25.889Z,77.92
2022-10-07T10:20:52.211Z,80.47
2022-10-07T10:23:29.046Z,79.99
2022-10-07T10:26:14.173Z,78.23
2022-10-07T10:28:55.142Z,77.82
2022-10-07T10:31:29.259Z,77.06
2022-10-07T10:33:59.081Z,80.03
2022-10-07T10:36:27.117Z,75.84
2022-10-07T10:39:01.567Z,77.43
2022-10-07T10:41:36.979Z,76.15
2022-10-07T10:44:12.347Z,75.19
2022-10-07T10:46:51.807Z,75.48
2022-10-07T10:49:27.633Z,75.84
2022-10-07T10:51:56.927Z,75.26
2022-10-07T10:54:23.437Z,74.48
2022-10-07T10:57:04.928Z,73.65
2022-10-07T10:59:34.329Z,71.73
2022-10-07T11:02:08.061Z,72.34
2022-10-07T11:04:45.259Z,71.33
2022-10-07T11:07:18.223Z,70.06
2022-10-07T11:09:46.395Z,70.49
2022-10-07T11:12:23.744Z,68.16
2022-10-07T11:14:57.744Z,66.80
2022-10-07T11:17:27.340Z,65.39
2022-10-07T11:20:04.247Z,62.88
2022-10-07T11:22:34.447Z,63.33
2022-10-07T11:25:03.373Z,63.55
2022-10-07T11:27:30.439Z,62.19
2022-10-07T11:30:02.922Z,62.69
2022-10-07T11:32:38.648Z,62.12
2022-10-07T11:35:13.894Z,61.80
2022-10-07T11:37:43.177Z,62.72
2022-10-07T11:40:09.607Z,61.30
2022-10-07T11:42:43.637Z,61.39
2022-10-07T11:45:11.743Z,62.73
2022-10-07T11:47:40.204Z,63.06
2022-10-07T11:50:08.168Z,62.18
2022-10-07T11:52:38.148Z,60.82
2022-10-07T11:55:05.578Z,61.61
2022-10-07T11:57:33.040Z,61.82
2022-10-07T12:00:05.939Z,61.00
2022-10-07T12:02:35.515Z,62.18
2022-10-07T12:05:02.077Z,61.04
2022-10-07T12:07:36.340Z,58.09
2022-10-07T12:10:03.347Z,60.09
2022-10-07T12:12:42.521Z,60.18
2022-10-07T12:15:27.638Z,59.41
2022-10-07T12:18:19.901Z,58.29
2022-10-07T12:20:46.994Z,60.09
2022-10-07T12:23:22.214Z,60.57
2022-10-07T12:26:01.349Z,61.08
2022-10-07T12:28:35.886Z,60.47
2022-10-07T12:31:03.165Z,59.40
2022-10-07T12:33:43.229Z,61.00
2022-10-07T12:36:18.810Z,61.36
2022-10-07T12:38:45.789Z,61.07
2022-10-07T12:41:18.314Z,59.21
2022-10-07T12:43:49.118Z,59.19
2022-10-07T12:46:16.989Z,58.96
2022-10-07T12:48:47.985Z,58.31
2022-10-07T12:51:19.360Z,56.66
2022-10-07T12:53:47.489Z,56.80
2022-10-07T12:56:24.224Z,58.61
2022-10-07T12:59:12.819Z,57.97
2022-10-07T13:02:02.568Z,58.36
2022-10-07T13:04:38.834Z,57.97
2022-10-07T13:07:29.875Z,58.34
2022-10-07T13:10:02.389Z,57.16
2022-10-07T13:12:31.274Z,57.52
2022-10-07T13:15:03.795Z,57.53
2022-10-07T13:17:39.373Z,58.29
2022-10-07T13:20:18.310Z,58.52
2022-10-07T13:22:45.583Z,58.43
2022-10-07T13:25:12.055Z,58.32
2022-10-07T13:27:38.622Z,59.49
2022-10-07T13:30:06.012Z,61.89
2022-10-07T13:32:34.210Z,58.08
2022-10-07T13:35:01.368Z,58.85
2022-10-07T13:37:31.805Z,59.17
2022-10-07T13:40:18.091Z,58.89
2022-10-07T13:42:44.679Z,59.77
2022-10-07T13:45:14.215Z,60.14
2022-10-07T13:47:40.553Z,58.29
2022-10-07T13:50:07.311Z,57.52
2022-10-07T13:52:40.142Z,56.00
2022-10-07T13:55:25.155Z,58.11
2022-10-07T13:57:51.612Z,61.88
2022-10-07T14:00:17.930Z,61.58
2022-10-07T14:02:44.538Z,59.67
2022-10-07T14:05:21.224Z,57.05
2022-10-07T14:07:51.163Z,56.70
2022-10-07T14:10:17.471Z,61.21
2022-10-07T14:12:44.578Z,63.00
2022-10-07T14:15:21.251Z,58.89
2022-10-07T14:17:48.313Z,65.00
2022-10-07T14:20:19.029Z,62.70
2022-10-07T14:22:47.585Z,58.68
2022-10-07T14:25:18.723Z,61.14
2022-10-07T14:27:57.689Z,67.96
2022-10-07T14:30:55.630Z,69.86
2022-10-07T14:33:45.809Z,69.16
2022-10-07T14:36:12.093Z,74.46
2022-10-07T14:38:38.495Z,74.40
2022-10-07T14:41:04.797Z,75.04
2022-10-07T14:43:31.174Z,76.59
2022-10-07T14:45:57.574Z,79.51
2022-10-07T14:48:24.023Z,82.03
2022-10-07T14:50:51.705Z,81.93
2022-10-07T14:53:18.061Z,82.94
2022-10-07T14:55:44.398Z,85.17
2022-10-07T14:58:10.884Z,85.12
2022-10-07T15:00:39.800Z,87.80
2022-10-07T15:03:06.399Z,88.55
2022-10-07T15:05:34.111Z,87.27
2022-10-07T15:08:04.769Z,88.48
2022-10-07T15:10:36.321Z,90.47
2022-10-07T15:13:04.003Z,87.74
2022-10-07T15:15:31.166Z,91.41
2022-10-07T15:17:57.504Z,90.49
2022-10-07T15:20:23.835Z,90.05
2022-10-07T15:22:50.161Z,92.39
2022-10-07T15:25:17.939Z,88.21
2022-10-07T15:27:44.271Z,89.21
2022-10-07T15:30:10.952Z,89.03
2022-10-07T15:32:37.306Z,90.58
2022-10-07T15:35:03.683Z,95.48
2022-10-07T15:37:30.059Z,95.20
2022-10-07T15:39:56.445Z,95.01
2022-10-07T15:42:23.395Z,94.99
2022-10-07T15:44:49.972Z,99.04
2022-10-07T15:47:16.952Z,98.90
2022-10-07T15:49:43.285Z,98.44
2022-10-07T15:52:11.734Z,98.94
2022-10-07T15:54:38.302Z,99.52
2022-10-07T15:57:04.605Z,96.93
2022-10-07T15:59:30.983Z,98.96
2022-10-07T16:01:57.389Z,100.00
2022-10-07T16:04:23.828Z,99.69
2022-10-07T16:06:53.137Z,100.00
2022-10-07T16:09:19.819Z,100.00
2022-10-07T16:11:46.227Z,100.00
2022-10-07T16:14:12.609Z,100.00
2022-10-07T16:16:38.988Z,100.00
2022-10-07T16:19:05.355Z,100.00
2022-10-07T16:21:32.657Z,100.00
2022-10-07T16:24:02.965Z,100.00
2022-10-07T16:26:30.224Z,100.00
2022-10-07T16:29:16.018Z,100.00
2022-10-07T16:31:42.649Z,100.00
2022-10-07T16:34:09.941Z,100.00
2022-10-07T16:36:36.707Z,100.00
2022-10-07T16:39:03.614Z,100.00
2022-10-07T16:41:30.137Z,100.00
2022-10-07T16:43:57.072Z,100.00
2022-10-07T16:46:23.505Z,100.00
2022-10-07T16:48:50.515Z,100.00
2022-10-07T16:51:20.019Z,100.00
2022-10-07T16:53:47.196Z,100.00
2022-10-07T16:56:13.607Z,100.00
2022-10-07T16:58:40.051Z,100.00
2022-10-07T17:01:09.443Z,100.00
2022-10-07T17:03:36.178Z,100.00
2022-10-07T17:06:02.601Z,100.00
2022-10-07T17:08:40.387Z,100.00
2022-10-07T17:11:10.483Z,100.00
2022-10-07T17:13:38.005Z,100.00
2022-10-07T17:16:05.869Z,100.00
2022-10-07T17:18:34.753Z,100.00
2022-10-07T17:21:01.239Z,100.00
2022-10-07T17:23:27.825Z,100.00
2022-10-07T17:25:54.500Z,100.00
2022-10-07T17:28:21.482Z,100.00
2022-10-07T17:30:50.592Z,100.00
2022-10-07T17:33:17.315Z,100.00
2022-10-07T17:35:45.354Z,100.00
2022-10-07T17:38:15.339Z,100.00
2022-10-07T17:40:43.786Z,100.00
2022-10-07T17:43:10.186Z,100.00
2022-10-07T17:45:36.839Z,100.00
2022-10-07T17:48:03.524Z,100.00
2022-10-07T17:50:30.644Z,100.00
2022-10-07T17:52:57.391Z,100.00
2022-10-07T17:55:23.705Z,100.00
2022-10-07T17:57:50.903Z,100.00
2022-10-07T18:00:17.609Z,100.00
2022-10-07T18:02:44.011Z,100.00
2022-10-07T18:05:10.337Z,100.00
2022-10-07T18:07:36.713Z,100.00
2022-10-07T18:10:03.034Z,100.00
2022-10-07T18:12:48.135Z,100.00
2022-10-07T18:15:20.253Z,100.00
2022-10-07T18:17:48.044Z,100.00
2022-10-07T18:20:15.441Z,100.00
2022-10-07T18:22:44.021Z,100.00
2022-10-07T18:25:11.814Z,100.00
2022-10-07T18:27:42.487Z,100.00
2022-10-07T18:30:09.412Z,100.00
2022-10-07T18:32:35.760Z,100.00
2022-10-07T18:35:02.089Z,100.00
2022-10-07T18:37:28.473Z,100.00
2022-10-07T18:39:54.848Z,100.00
2022-10-07T18:42:21.165Z,100.00
2022-10-07T18:44:47.708Z,100.00
2022-10-07T18:47:14.041Z,100.00
2022-10-07T18:49:40.384Z,100.00
2022-10-07T18:52:07.320Z,100.00
2022-10-07T18:54:33.651Z,100.00
2022-10-07T18:56:59.953Z,100.00
2022-10-07T18:59:26.251Z,100.00
2022-10-07T19:01:52.659Z,100.00
2022-10-07T19:04:19.364Z,100.00
2022-10-07T19:06:59.989Z,100.00
2022-10-07T19:09:26.467Z,100.00
2022-10-07T19:11:52.775Z,100.00
2022-10-07T19:14:20.013Z,100.00
2022-10-07T19:16:48.869Z,100.00
2022-10-07T19:19:17.067Z,100.00
2022-10-07T19:21:46.536Z,100.00
2022-10-07T19:24:13.195Z,100.00
2022-10-07T19:26:42.238Z,100.00
2022-10-07T19:29:13.075Z,100.00
2022-10-07T19:31:40.810Z,100.00
2022-10-07T19:34:07.906Z,100.00
2022-10-07T19:36:35.350Z,100.00
2022-10-07T19:39:02.007Z,100.00
2022-10-07T19:41:31.791Z,100.00
2022-10-07T19:43:58.243Z,100.00
2022-10-07T19:46:25.221Z,100.00
2022-10-07T19:48:52.494Z,100.00
2022-10-07T19:51:19.376Z,100.00
2022-10-07T19:53:47.192Z,100.00
2022-10-07T19:56:17.608Z,100.00
2022-10-07T19:58:47.686Z,100.00
2022-10-07T20:01:14.672Z,100.00
2022-10-07T20:03:41.111Z,100.00
2022-10-07T20:06:11.209Z,100.00
2022-10-07T20:08:38.347Z,100.00
2022-10-07T20:11:04.655Z,100.00
2022-10-07T20:13:34.732Z,100.00
2022-10-07T20:16:05.107Z,100.00
2022-10-07T20:18:32.275Z,100.00
2022-10-07T20:21:02.325Z,100.00
2022-10-07T20:23:31.751Z,100.00
2022-10-07T20:25:58.067Z,100.00
2022-10-07T20:28:24.473Z,100.00
2022-10-07T20:30:50.870Z,100.00
2022-10-07T20:33:17.263Z,100.00
2022-10-07T20:35:43.581Z,100.00
2022-10-07T20:38:10.232Z,100.00
2022-10-07T20:40:55.116Z,100.00
2022-10-07T20:43:21.443Z,100.00
2022-10-07T20:45:57.760Z,100.00
2022-10-07T20:48:25.256Z,100.00
2022-10-07T20:50:53.566Z,100.00
2022-10-07T20:53:20.911Z,100.00
2022-10-07T20:55:47.454Z,100.00
2022-10-07T20:58:14.898Z,100.00
2022-10-07T21:00:41.387Z,100.00
2022-10-07T21:03:07.768Z,100.00
2022-10-07T21:05:34.281Z,100.00
2022-10-07T21:08:00.593Z,100.00
2022-10-07T21:10:26.907Z,100.00
2022-10-07T21:12:53.236Z,100.00
2022-10-07T21:15:20.110Z,100.00
2022-10-07T21:17:48.705Z,100.00
2022-10-07T21:20:15.057Z,100.00
2022-10-07T21:22:41.366Z,100.00
2022-10-07T21:25:11.950Z,100.00
2022-10-07T21:27:38.550Z,100.00
2022-10-07T21:30:05.212Z,100.00
2022-10-07T21:32:31.546Z,100.00
2022-10-07T21:34:57.883Z,100.00
2022-10-07T21:37:24.196Z,100.00
2022-10-07T21:39:50.519Z,100.00
2022-10-07T21:42:17.059Z,100.00
2022-10-07T21:44:44.291Z,100.00
2022-10-07T21:47:10.599Z,100.00
2022-10-07T21:49:36.905Z,100.00
2022-10-07T21:52:03.230Z,100.00
2022-10-07T21:54:30.509Z,100.00
2022-10-07T21:56:56.813Z,100.00
2022-10-07T21:59:23.370Z,100.00
2022-10-07T22:01:49.803Z,100.00
2022-10-07T22:04:16.658Z,100.00
2022-10-07T22:07:01.762Z,100.00
2022-10-07T22:09:28.242Z,100.00
2022-10-07T22:11:54.541Z,100.00
2022-10-07T22:14:20.913Z,100.00
2022-10-07T22:16:48.335Z,100.00
2022-10-07T22:19:14.716Z,100.00
2022-10-07T22:21:41.563Z,100.00
2022-10-07T22:24:08.373Z,100.00
2022-10-07T22:26:39.445Z,100.00
2022-10-07T22:29:06.396Z,100.00
2022-10-07T22:31:32.772Z,100.00
2022-10-07T22:33:59.423Z,100.00
2022-10-07T22:36:25.904Z,100.00
2022-10-07T22:38:52.490Z,100.00
2022-10-07T22:41:19.352Z,100.00
2022-10-07T22:43:46.034Z,100.00
2022-10-07T22:46:13.083Z,100.00
2022-10-07T22:48:42.959Z,100.00
2022-10-07T22:51:10.143Z,100.00
2022-10-07T22:53:36.740Z,100.00
2022-10-07T22:56:07.060Z,100.00
2022-10-07T22:58:33.862Z,100.00
2022-10-07T23:01:03.660Z,100.00
2022-10-07T23:03:30.061Z,100.00
2022-10-07T23:05:59.753Z,100.00
2022-10-07T23:08:26.094Z,100.00
2022-10-07T23:10:56.732Z,100.00
2022-10-07T23:13:23.551Z,100.00
2022-10-07T23:15:56.887Z,100.00
2022-10-07T23:18:23.256Z,100.00
2022-10-07T23:20:57.010Z,100.00
2022-10-07T23:23:25.275Z,100.00
2022-10-07T23:25:52.048Z,100.00
2022-10-07T23:28:19.226Z,100.00
2022-10-07T23:30:45.729Z,100.00
2022-10-07T23:33:13.778Z,100.00
2022-10-07T23:35:40.468Z,100.00
2022-10-07T23:38:07.392Z,100.00
2022-10-07T23:40:33.711Z,100.00
2022-10-07T23:43:00.039Z,100.00
2022-10-07T23:45:27.342Z,100.00
2022-10-07T23:47:53.657Z,100.00
2022-10-07T23:50:20.675Z,100.00
2022-10-07T23:52:47.528Z,100.00
2022-10-07T23:55:14.171Z,100.00
2022-10-07T23:57:40.483Z,100.00
